Accueil
METAR-TAF:

METAR-TAF

Aéroports :

Aéroport Rouen Vallée de Seine

Rouen, France

latitude: 49-23N, longitude: 001-11E, altitude: 157 m

Observation

Le bulletin a été fait il y a 24 minutes, à 18:00 UTC
Vent 5 kt de nord/nord-ouest
Température 8°C
Humidité 49%
Pression 1028 hPa
Visibilité 10 km ou plus

METAR: LFOP 241800Z AUTO 33005KT 9999 ////// 08/M02 Q1028

Heure: 19:24 (18:24 UTC)

Prévision

Le bulletin a été fait il y a 1 heure et 24 minutes, à 17:00 UTC
Prévision valable du 24 à 18 UTC au 25 à 18 UTC
Vent 7 kt de nord/nord-ouest
Visibilité 10 km ou plus
pas de nuages en-dessous de 1500 mètres et pas de cumulonimbus.
Temporairement
du 25 à 00 UTC au 25 à 04 UTC
Visibilité: 2000 m
bancs de brouillard

TAF: LFOP 241700Z 2418/2518 34007KT CAVOK TEMPO 2500/2504 2000 BCFG

Observations et prévisions météorologiques de plus de 4000 aéroports (messages METAR et TAF).

Les stations disponibles sont représentées par des disques jaunes et rouges sur la carte.

Passer la souris dessus pour voir le nom de la station.

Cliquer dessus pour voir les observations et prévisions météorologiques.

Pour changer de carte: cliquez sur les boutons verts avec une croix noire pour zoomer, sur le bouton vert avec un tiret pour effectuer un zoom arrière, ou sur les flèches vertes pour les cartes adjacentes.


METAR-TAF: